Walterboro, SC (29488)

4:54 AM EDT on July 29, 2014 (GMT -0400)
Lowcountry Regional (KRBW) Elev 102 ft | 32.92 °N, 80.64 °W | Change Station

Current weather conditions updated 19 minutes ago

Clear
Clear
72 °F
Feels Like 72 °F
N
4
Wind Variable Wind from WNW

Today is forecast to be Cooler than yesterday.

Today
High -- | Low -- °F
--% Chance of Precip.
Yesterday
High -- | Low -- °F
Precip. -- in
6:34 AM 8:23 PM
Waxing Crescent, 5% visible
Pressure 29.87 in
Visibility 10.0 miles
Clouds Clear
Dew Point 66 °F
Humidity 83%
Rainfall 0.00 in
Snow Depth Not available.
UV 0 out of 12
Pollen 5.90 out of 12
Air Quality Not available.
Flu Activity Not available.
METAR KRBW 290835Z AUTO 30003KT 10SM CLR 22/19 A2987 RMK AO2

More Conditions Fewer Conditions

Pressure 29.87 in
Visibility 10.0 miles
Clouds Clear
Dew Point 66 °F
Humidity 83%
Rainfall 0.00 in
Snow Depth Not available.
UV 0 out of 12
Pollen 5.90 out of 12
Air Quality Not available.
Flu Activity Not available.
METAR KRBW 290835Z AUTO 30003KT 10SM CLR 22/19 A2987 RMK AO2

More Conditions Fewer Conditions

10-Day Weather Forecast

Almanac

Astronomy

Jul. 29, 2014 Rise Set
Actual Time 6:34 AM EDT 8:23 PM EDT
Civil Twilight 6:06 AM EDT 8:50 PM EDT
Nautical Twilight 5:34 AM EDT 9:23 PM EDT
Astronomical Twilight 4:59 AM EDT 9:58 PM EDT
Moon 8:58 AM EDT 9:47 PM EDT
Length of Visible Light 14h 43m
Length of Day
13h 49m
Tomorrow will be 1m 27s shorter.
Waxing Crescent, 5% of the Moon is Illuminated
Today
Waxing Crescent
Aug 3
First Quarter
Aug 10
Full
Aug 17
Last Quarter
Aug 25
New

Today's Extremes

State Highs State Lows

Community

WunderPhotos

Upload Photos

1,738,655 photos uploaded!

Nearby

Snow Depth

Station Depth Elevation
No new snow has been reported.

Earthquake Activity

City Distance Mag. Time & Date
No recent earthquake activity has been reported nearby.
Minimum magnitude displayed is 2.5.

Coastal Water Temperatures

Place Temperature
No Stations Reporting

Nearby Weather Stations

Station Location Temp. Heat Index Dew Point Humidity Wind Precip. Elev Updated Type
Wood Road, Green Pond, SC 68.5 °F - 69 °F 100% WSW  at  0.0 mph 0.00 in / hr 40 ft 4:47 AM EDT Normal
KQ4WH, Skunkworks, Smoaks, SC 66.6 °F - 64 °F 90% NNW  at  0.0 mph 0.00 in / hr 108 ft 4:54 AM EDT Rapid Fire
Near Givhans Ferry State Park, Ridgeville, SC 66.4 °F - 66 °F 99% East  at  0.0 mph 0.00 in / hr 75 ft 4:54 AM EDT Rapid Fire
RAWS SAVANNAH PORTABLE SC, Yemassee, SC 72 °F - 71 °F 96% North  at  0 mph 0.00 in / hr 6 ft 4:23 AM EDT MADIS
RAWS ACE BASIN SC, Green Pond, SC 74 °F 74 °F 68 °F 82% North  at  5 mph 0.00 in / hr 8 ft 3:55 AM EDT MADIS
3 Miles North of Hwy's 17 & 165 (Hyde Pa, Ravenel, SC 70.0 °F - 69 °F 98% SSW  at  0.0 mph 0.00 in / hr 43 ft 4:54 AM EDT Rapid Fire

Show More Stations Show Fewer Stations